Time;durP1;ratioP1;P1;durP2;ratioP2;P2;SDS_P1;SDS_P2;PMS_P1;PMS_P2;Temp;Humidity;BMP_temperature;BMP_pressure;BME280_temperature;BME280_humidity;BME280_pressure;Samples;Min_cycle;Max_cycle;Signal;HPM_P1;HPM_P2
2021/12/10 00:00:01;;;;;;;61.47;40.77;;;13.80;73.30;;;;;;5227213;28;20479;-37
2021/12/10 00:02:35;;;;;;;39.45;27.58;;;13.80;73.30;;;;;;5243621;28;20064;-35
2021/12/10 00:05:07;;;;;;;79.70;49.30;;;13.90;73.40;;;;;;5227431;28;20080;-38
2021/12/10 00:07:38;;;;;;;57.90;38.47;;;13.90;73.30;;;;;;5243231;28;20463;-38
2021/12/10 00:10:14;;;;;;;45.83;32.87;;;13.90;73.10;;;;;;5227542;28;20120;-36
2021/12/10 00:12:50;;;;;;;73.30;49.33;;;13.90;73.10;;;;;;5227837;28;20045;-39
2021/12/10 00:15:24;;;;;;;58.97;41.00;;;13.90;73.10;;;;;;5242471;28;20079;-40
2021/12/10 00:17:55;;;;;;;61.22;41.10;;;13.90;73.10;;;;;;5227340;28;20490;-37
2021/12/10 00:20:28;;;;;;;36.83;27.60;;;13.90;73.10;;;;;;5246190;28;20045;-39
2021/12/10 00:23:03;;;;;;;58.77;38.90;;;13.90;73.00;;;;;;5231584;28;20045;-38
2021/12/10 00:25:38;;;;;;;61.07;41.87;;;13.90;73.10;;;;;;5231768;28;20052;-36
2021/12/10 00:28:18;;;;;;;38.80;28.33;;;13.90;73.40;;;;;;5231487;28;20048;-39
2021/12/10 00:34:11;;;;;;;63.10;43.07;;;13.90;73.70;;;;;;5231025;28;20120;-35
2021/12/10 00:36:43;;;;;;;61.07;41.27;;;13.90;73.50;;;;;;5230820;28;20049;-33
2021/12/10 00:39:20;;;;;;;36.63;26.60;;;14.00;73.30;;;;;;5229940;28;20068;-34
2021/12/10 00:41:52;;;;;;;42.50;31.10;;;14.00;73.10;;;;;;5246832;28;20052;-34
2021/12/10 00:44:23;;;;;;;36.20;26.20;;;14.10;73.00;;;;;;5246945;28;20045;-39
2021/12/10 00:46:54;;;;;;;55.73;38.30;;;14.10;72.80;;;;;;5246486;28;20048;-37
2021/12/10 00:49:25;;;;;;;41.13;30.03;;;14.10;72.70;;;;;;5231027;28;20124;-35
2021/12/10 00:51:56;;;;;;;47.37;31.67;;;14.20;72.70;;;;;;5230892;28;20068;-37
2021/12/10 00:54:27;;;;;;;40.30;29.70;;;14.20;72.70;;;;;;5230974;28;20075;-38
2021/12/10 00:56:58;;;;;;;47.17;32.73;;;14.20;72.50;;;;;;5230704;28;20041;-38
2021/12/10 00:59:29;;;;;;;46.90;32.70;;;14.20;72.60;;;;;;5230860;28;20124;-40
2021/12/10 01:02:00;;;;;;;47.03;34.00;;;14.20;72.50;;;;;;5230748;28;20049;-38
2021/12/10 01:04:34;;;;;;;32.77;24.37;;;14.20;72.50;;;;;;5245876;28;20483;-34
2021/12/10 01:07:09;;;;;;;71.13;46.70;;;14.20;72.50;;;;;;5230556;28;20127;-35
2021/12/10 01:09:44;;;;;;;52.10;35.23;;;14.20;72.60;;;;;;5229934;28;20053;-37
2021/12/10 01:12:40;;;;;;;64.47;41.00;;;14.20;72.60;;;;;;5229557;28;20507;-36
2021/12/10 01:23:56;;;;;;;104.33;59.03;;;14.10;72.70;;;;;;5228254;28;20490;-37
2021/12/10 01:29:23;;;;;;;159.03;86.60;;;14.10;72.90;;;;;;5226487;28;20055;-38
2021/12/10 01:31:54;;;;;;;163.87;87.30;;;14.00;73.20;;;;;;5218100;28;20041;-34
2021/12/10 01:34:26;;;;;;;109.60;59.93;;;14.00;73.70;;;;;;5222676;28;20045;-41
2021/12/10 01:36:57;;;;;;;130.40;70.80;;;14.00;73.90;;;;;;5227301;28;20061;-39
2021/12/10 01:39:30;;;;;;;195.33;105.47;;;14.00;73.80;;;;;;5227556;28;20056;-38
2021/12/10 01:42:14;;;;;;;118.43;68.17;;;14.00;73.60;;;;;;5227373;28;20044;-38
2021/12/10 01:44:48;;;;;;;151.17;80.17;;;14.10;73.60;;;;;;5213085;28;20119;-33
2021/12/10 01:47:21;;;;;;;253.73;136.73;;;14.10;73.60;;;;;;5227827;28;20047;-33
2021/12/10 01:49:53;;;;;;;129.13;69.37;;;14.00;73.50;;;;;;5226442;28;20492;-41
2021/12/10 01:52:24;;;;;;;133.67;73.53;;;14.00;73.40;;;;;;5226322;28;20056;-35
2021/12/10 01:54:56;;;;;;;139.30;78.20;;;14.00;73.40;;;;;;5213170;28;20052;-43
2021/12/10 01:57:31;;;;;;;145.83;80.43;;;14.00;73.40;;;;;;5226119;28;20448;-40
2021/12/10 02:02:59;;;;;;;158.77;91.60;;;14.00;73.50;;;;;;5226271;28;20045;-34
2021/12/10 02:05:30;;;;;;;106.53;61.50;;;14.00;73.50;;;;;;5226091;28;20075;-35
2021/12/10 02:08:00;;;;;;;138.07;81.20;;;14.00;73.40;;;;;;5226878;28;20068;-37
2021/12/10 02:10:33;;;;;;;203.60;112.57;;;14.00;73.50;;;;;;5229384;28;20041;-36
2021/12/10 02:13:04;;;;;;;116.75;66.95;;;14.00;73.60;;;;;;5229719;28;20470;-40
2021/12/10 02:15:36;;;;;;;144.10;84.47;;;14.00;73.60;;;;;;5229284;28;20534;-33
2021/12/10 02:18:07;;;;;;;121.67;71.83;;;14.00;73.60;;;;;;5229001;28;20045;-35
2021/12/10 02:21:02;;;;;;;99.93;57.73;;;14.00;73.70;;;;;;5244697;28;20037;-38
2021/12/10 02:23:36;;;;;;;121.10;68.33;;;14.00;73.60;;;;;;5229184;28;20049;-35
2021/12/10 02:26:09;;;;;;;147.70;85.47;;;14.00;73.70;;;;;;5228906;28;20127;-40
2021/12/10 02:28:40;;;;;;;106.35;60.42;;;13.90;73.60;;;;;;5228803;28;20041;-32
2021/12/10 02:31:12;;;;;;;141.63;79.17;;;14.00;73.70;;;;;;5228809;28;20127;-34
2021/12/10 02:33:43;;;;;;;93.47;51.50;;;13.90;73.90;;;;;;5228653;28;20135;-38
2021/12/10 02:36:14;;;;;;;93.03;53.90;;;13.90;74.50;;;;;;5228531;28;20080;-39
2021/12/10 02:38:48;;;;;;;138.47;76.87;;;13.90;74.60;;;;;;5244118;28;20053;-34
2021/12/10 02:41:20;;;;;;;;;;;13.90;74.50;;;;;;5228693;28;20052;-41
2021/12/10 02:43:51;;;;;;;123.63;74.83;;;13.90;74.30;;;;;;5228674;28;20366;-37
2021/12/10 02:46:22;;;;;;;69.73;51.80;;;13.90;74.30;;;;;;5225572;28;20048;-38
2021/12/10 02:48:54;;;;;;;49.23;39.13;;;13.90;74.10;;;;;;5228353;28;20150;-42
2021/12/10 02:51:26;;;;;;;37.50;29.77;;;13.90;74.10;;;;;;5228619;28;20501;-35
2021/12/10 02:53:57;;;;;;;42.80;30.90;;;13.90;74.10;;;;;;5229025;28;20080;-39
2021/12/10 02:56:28;;;;;;;56.13;39.27;;;13.90;74.10;;;;;;5243806;28;20064;-41
2021/12/10 02:59:01;;;;;;;72.80;48.17;;;13.90;74.10;;;;;;5243385;28;20137;-37
2021/12/10 03:01:42;;;;;;;51.50;36.67;;;13.90;74.10;;;;;;5228142;28;20048;-40
2021/12/10 03:04:14;;;;;;;175.30;98.07;;;13.90;74.60;;;;;;5228302;28;20052;-38
2021/12/10 03:06:49;;;;;;;173.07;98.07;;;13.90;74.10;;;;;;5228106;28;20182;-40
2021/12/10 03:09:20;;;;;;;121.70;66.97;;;13.90;74.10;;;;;;5227699;28;20091;-40
2021/12/10 03:11:55;;;;;;;119.53;65.20;;;13.90;74.10;;;;;;5243479;28;20051;-39
2021/12/10 03:14:32;;;;;;;142.90;74.67;;;13.90;74.10;;;;;;5227727;28;20041;-41
2021/12/10 03:17:08;;;;;;;157.83;87.80;;;13.90;74.10;;;;;;5228369;28;20124;-40
2021/12/10 03:19:39;;;;;;;132.93;74.43;;;13.90;74.20;;;;;;5243257;28;20053;-42
2021/12/10 03:22:10;;;;;;;152.27;85.07;;;13.90;74.20;;;;;;5228157;28;20041;-36
2021/12/10 03:24:41;;;;;;;170.20;96.70;;;13.90;74.20;;;;;;5243481;28;20049;-31
2021/12/10 03:27:14;;;;;;;109.03;64.33;;;13.90;74.40;;;;;;5227992;28;20040;-41
2021/12/10 03:29:45;;;;;;;58.75;38.88;;;13.90;74.20;;;;;;5227995;28;20133;-42
2021/12/10 03:32:23;;;;;;;58.30;37.27;;;13.90;74.30;;;;;;5243652;28;20041;-35
2021/12/10 03:34:56;;;;;;;86.93;55.37;;;13.90;74.30;;;;;;5243600;28;20076;-38
2021/12/10 03:37:27;;;;;;;95.10;61.65;;;13.90;74.30;;;;;;5227323;28;20081;-35
2021/12/10 03:39:58;;;;;;;54.77;36.33;;;13.90;74.30;;;;;;5244054;28;20077;-40
2021/12/10 03:42:29;;;;;;;87.53;55.37;;;13.90;74.60;;;;;;5243429;28;20045;-38
2021/12/10 03:45:00;;;;;;;62.53;42.20;;;13.80;74.90;;;;;;5225649;28;20195;-35
2021/12/10 03:47:31;;;;;;;60.63;38.53;;;13.80;75.20;;;;;;5227840;28;20053;-38
2021/12/10 03:50:02;;;;;;;73.87;45.50;;;13.80;75.20;;;;;;5227785;28;20143;-37
2021/12/10 03:52:34;;;;;;;70.40;39.40;;;13.90;75.10;;;;;;5228043;28;20140;-34
2021/12/10 03:55:06;;;;;;;97.97;53.10;;;13.90;75.10;;;;;;5231891;28;20127;-36
2021/12/10 03:57:37;;;;;;;64.37;39.13;;;13.90;74.90;;;;;;5231822;28;20124;-32
2021/12/10 04:00:09;;;;;;;108.03;63.33;;;13.90;74.90;;;;;;5232052;28;20418;-38
2021/12/10 04:02:40;;;;;;;98.07;59.30;;;13.90;74.80;;;;;;5231925;28;20041;-38
2021/12/10 04:05:11;;;;;;;97.43;58.13;;;13.90;74.90;;;;;;5231584;28;20045;-38
2021/12/10 04:07:42;;;;;;;63.63;41.73;;;13.90;74.80;;;;;;5231756;28;20178;-40
2021/12/10 04:10:13;;;;;;;60.03;41.13;;;13.90;74.80;;;;;;5231519;28;20124;-38
2021/12/10 04:12:45;;;;;;;61.23;41.37;;;13.90;74.90;;;;;;5231626;28;20068;-40
2021/12/10 04:15:18;;;;;;;45.53;32.73;;;13.90;74.90;;;;;;5247680;28;20068;-39
2021/12/10 04:17:53;;;;;;;36.10;25.73;;;13.90;74.90;;;;;;5231634;28;20067;-37
2021/12/10 04:20:26;;;;;;;55.30;37.77;;;13.90;74.90;;;;;;5247116;28;20534;-39
2021/12/10 04:22:58;;;;;;;42.92;30.52;;;13.80;75.00;;;;;;5247440;28;20352;-41
2021/12/10 04:25:29;;;;;;;25.97;19.77;;;13.80;74.90;;;;;;5246260;28;20387;-39
2021/12/10 04:28:03;;;;;;;36.53;25.97;;;13.80;75.00;;;;;;5231602;28;20387;-35
2021/12/10 04:30:39;;;;;;;30.87;23.80;;;13.80;75.10;;;;;;5231468;28;20123;-35
2021/12/10 04:33:12;;;;;;;26.13;21.67;;;13.90;75.20;;;;;;5245839;28;20124;-36
2021/12/10 04:35:45;;;;;;;48.97;41.30;;;13.80;75.20;;;;;;5231291;28;20056;-35
2021/12/10 04:38:16;;;;;;;29.30;23.67;;;13.80;75.30;;;;;;5246192;28;20053;-36
2021/12/10 04:40:47;;;;;;;32.47;25.33;;;13.80;75.20;;;;;;5231614;28;20047;-39
2021/12/10 04:43:20;;;;;;;35.70;27.27;;;13.80;75.10;;;;;;5231209;28;20049;-40
2021/12/10 04:45:54;;;;;;;32.90;27.13;;;13.80;75.30;;;;;;5231393;28;20432;-36
2021/12/10 04:48:26;;;;;;;26.37;23.30;;;13.80;75.30;;;;;;5230276;28;20056;-34
2021/12/10 04:50:57;;;;;;;30.27;24.70;;;13.90;75.30;;;;;;5246291;28;20049;-34
2021/12/10 04:53:28;;;;;;;27.83;22.33;;;13.80;75.20;;;;;;5230089;28;20051;-40
2021/12/10 04:55:59;;;;;;;26.47;22.37;;;13.90;75.40;;;;;;5230983;28;20037;-32
2021/12/10 04:58:32;;;;;;;25.10;20.80;;;13.80;75.40;;;;;;5230514;28;20545;-36
2021/12/10 05:01:03;;;;;;;23.13;19.17;;;13.80;75.60;;;;;;5230305;28;20044;-33
2021/12/10 05:03:34;;;;;;;26.83;21.67;;;13.80;76.10;;;;;;5246030;28;20091;-39
2021/12/10 05:06:05;;;;;;;26.97;22.03;;;13.80;76.30;;;;;;5229901;28;20470;-39
2021/12/10 05:08:37;;;;;;;26.63;20.50;;;13.80;76.30;;;;;;5230347;28;20141;-39
2021/12/10 05:11:09;;;;;;;31.50;26.50;;;13.80;76.20;;;;;;5245901;28;20045;-33
2021/12/10 05:13:41;;;;;;;34.27;30.57;;;13.80;76.10;;;;;;5230384;28;20119;-41
2021/12/10 05:16:12;;;;;;;38.00;33.90;;;13.90;76.00;;;;;;5230374;28;20045;-36
2021/12/10 05:18:48;;;;;;;30.77;23.67;;;13.80;75.90;;;;;;5230396;28;20479;-38
2021/12/10 05:21:18;;;;;;;33.97;30.27;;;13.80;75.90;;;;;;5230055;28;20486;-43
2021/12/10 05:23:50;;;;;;;26.40;22.53;;;13.80;75.90;;;;;;5229344;28;20052;-38
2021/12/10 05:26:20;;;;;;;28.67;25.23;;;13.80;76.40;;;;;;5230321;28;20054;-35
2021/12/10 05:28:51;;;;;;;25.63;21.40;;;13.90;75.90;;;;;;5230684;28;20053;-40
2021/12/10 05:31:22;;;;;;;27.50;21.67;;;13.90;75.90;;;;;;5230308;28;20040;-36
2021/12/10 05:33:54;;;;;;;27.43;24.07;;;13.90;75.90;;;;;;5229471;28;20052;-35
2021/12/10 05:36:25;;;;;;;30.57;23.73;;;13.90;75.80;;;;;;5229385;28;20059;-38
2021/12/10 05:38:57;;;;;;;29.23;22.93;;;13.90;75.80;;;;;;5229818;28;20080;-37
2021/12/10 05:41:27;;;;;;;29.83;23.13;;;14.00;75.90;;;;;;5230119;28;20076;-38
2021/12/10 05:43:59;;;;;;;29.20;22.43;;;14.00;75.80;;;;;;5228219;28;20116;-42
2021/12/10 05:46:31;;;;;;;32.70;27.20;;;14.00;75.90;;;;;;5228540;28;20033;-32
2021/12/10 05:49:02;;;;;;;26.40;20.87;;;14.10;76.10;;;;;;5229397;28;20072;-39
2021/12/10 05:51:33;;;;;;;27.40;21.97;;;14.10;76.00;;;;;;5229686;28;20509;-40
2021/12/10 05:54:04;;;;;;;29.50;23.27;;;14.20;76.00;;;;;;5244863;28;20132;-33
2021/12/10 05:56:35;;;;;;;31.97;24.67;;;14.20;75.90;;;;;;5229615;28;20455;-34
2021/12/10 05:59:06;;;;;;;29.50;24.00;;;14.20;75.90;;;;;;5244899;28;20060;-35
2021/12/10 06:01:37;;;;;;;28.53;23.13;;;14.20;75.80;;;;;;5227221;28;20041;-39
2021/12/10 06:04:08;;;;;;;29.47;22.33;;;13.20;76.70;;;;;;5228779;28;20051;-38
2021/12/10 06:06:39;;;;;;;31.27;25.90;;;11.60;80.90;;;;;;5228723;28;20041;-33
2021/12/10 06:09:10;;;;;;;27.70;20.03;;;10.70;83.40;;;;;;5228331;28;20500;-36
2021/12/10 06:11:41;;;;;;;31.73;22.87;;;10.30;84.90;;;;;;5228701;28;20123;-32
2021/12/10 06:14:13;;;;;;;27.60;20.40;;;10.00;86.00;;;;;;5229054;28;20053;-32
2021/12/10 06:16:44;;;;;;;31.77;22.13;;;9.80;86.60;;;;;;5228115;28;20136;-32
2021/12/10 06:19:15;;;;;;;30.27;21.47;;;9.70;87.10;;;;;;5229204;28;20071;-31
2021/12/10 06:21:46;;;;;;;27.60;22.67;;;9.60;87.40;;;;;;5228889;28;20073;-33
2021/12/10 06:24:17;;;;;;;31.33;25.10;;;9.60;87.60;;;;;;5228791;28;20057;-29
2021/12/10 06:26:51;;;;;;;30.17;22.87;;;9.60;87.80;;;;;;5228194;28;20048;-31
2021/12/10 06:29:24;;;;;;;31.03;22.27;;;9.60;87.90;;;;;;5229386;28;20055;-36
2021/12/10 06:31:55;;;;;;;35.72;27.88;;;9.70;87.80;;;;;;5229075;28;20040;-36
2021/12/10 06:34:26;;;;;;;28.70;21.10;;;9.60;88.00;;;;;;5227720;28;20124;-33
2021/12/10 06:36:57;;;;;;;31.47;23.70;;;9.60;88.20;;;;;;5228621;28;20139;-35
2021/12/10 06:39:28;;;;;;;32.20;24.87;;;9.60;88.20;;;;;;5227975;28;20047;-32
2021/12/10 06:42:00;;;;;;;26.10;21.63;;;9.60;88.30;;;;;;5228878;28;20041;-39
2021/12/10 06:44:31;;;;;;;30.03;21.80;;;9.50;88.60;;;;;;5228620;28;20047;-37
2021/12/10 06:47:05;;;;;;;29.37;22.43;;;9.50;88.90;;;;;;5228650;28;20406;-37
2021/12/10 06:49:36;;;;;;;23.87;18.37;;;9.50;88.80;;;;;;5229175;28;20115;-33
2021/12/10 06:52:07;;;;;;;25.23;19.03;;;9.50;89.00;;;;;;5228675;28;20455;-32
2021/12/10 06:54:41;;;;;;;25.87;18.57;;;9.40;89.00;;;;;;5228122;28;20132;-39
2021/12/10 06:57:13;;;;;;;26.07;19.47;;;9.30;89.40;;;;;;5228447;28;20059;-37
2021/12/10 06:59:45;;;;;;;24.07;18.73;;;9.30;89.50;;;;;;5228838;28;20464;-34
2021/12/10 07:02:16;;;;;;;23.57;17.60;;;9.30;89.60;;;;;;5228704;28;20445;-33
2021/12/10 07:04:47;;;;;;;23.47;18.03;;;9.20;89.70;;;;;;5228492;28;20119;-32
2021/12/10 07:07:18;;;;;;;24.90;18.00;;;9.20;90.00;;;;;;5228692;28;20182;-36
2021/12/10 07:09:49;;;;;;;24.93;19.87;;;9.10;90.00;;;;;;5228368;28;20376;-34
2021/12/10 07:12:20;;;;;;;28.40;21.73;;;9.10;90.00;;;;;;5227208;28;20048;-35
2021/12/10 07:14:53;;;;;;;33.63;24.63;;;9.10;90.10;;;;;;5227170;28;20396;-36
2021/12/10 07:17:24;;;;;;;24.20;19.00;;;9.10;90.20;;;;;;5228196;28;20053;-39
2021/12/10 07:19:55;;;;;;;26.37;20.47;;;9.10;90.20;;;;;;5210519;28;20504;-32
2021/12/10 07:22:26;;;;;;;28.97;22.33;;;9.10;90.30;;;;;;5227865;28;20048;-41
2021/12/10 07:24:57;;;;;;;27.33;22.70;;;9.00;90.30;;;;;;5226203;28;20069;-30
2021/12/10 07:27:28;;;;;;;26.83;22.03;;;9.10;90.40;;;;;;5227512;28;20068;-31
2021/12/10 07:29:59;;;;;;;29.77;23.50;;;9.10;90.40;;;;;;5227480;28;20044;-38
2021/12/10 07:32:30;;;;;;;31.27;22.80;;;9.10;90.50;;;;;;5227120;28;20045;-39
2021/12/10 07:35:01;;;;;;;30.53;23.03;;;9.40;90.40;;;;;;5227511;28;20041;-38
2021/12/10 07:37:32;;;;;;;34.70;23.33;;;10.00;89.70;;;;;;5227448;28;20059;-33
2021/12/10 07:40:07;;;;;;;35.97;23.37;;;10.60;88.30;;;;;;5204639;28;20988;-35
2021/12/10 07:42:39;;;;;;;35.15;23.42;;;11.00;86.90;;;;;;5206968;28;20050;-36
2021/12/10 07:45:10;;;;;;;29.80;22.00;;;11.40;86.10;;;;;;5217711;28;20037;-32
2021/12/10 07:47:41;;;;;;;31.20;22.30;;;11.70;85.00;;;;;;5187343;28;20057;-35
2021/12/10 07:50:17;;;;;;;30.10;21.30;;;12.00;84.50;;;;;;5185727;28;20050;-36
2021/12/10 07:52:50;;;;;;;26.20;20.33;;;12.20;83.90;;;;;;5203578;28;20499;-36
2021/12/10 07:55:25;;;;;;;27.70;20.40;;;12.40;83.40;;;;;;5204516;28;20320;-36
2021/12/10 07:57:56;;;;;;;24.43;20.33;;;12.60;83.00;;;;;;5204473;28;20042;-41
2021/12/10 08:00:29;;;;;;;28.97;20.60;;;12.70;82.70;;;;;;5187462;28;20038;-40
2021/12/10 08:03:01;;;;;;;28.95;21.20;;;12.80;82.50;;;;;;5184607;28;20045;-37
2021/12/10 08:05:42;;;;;;;26.93;19.90;;;13.00;82.40;;;;;;5184128;28;20053;-38
2021/12/10 08:08:14;;;;;;;26.00;19.70;;;13.10;82.30;;;;;;5184189;28;20046;-35
2021/12/10 08:10:50;;;;;;;25.97;20.87;;;13.20;82.10;;;;;;5195622;28;20099;-36
2021/12/10 08:13:24;;;;;;;27.30;21.37;;;13.20;81.90;;;;;;5189451;28;20068;-37
2021/12/10 08:16:23;;;;;;;30.05;22.13;;;13.30;81.80;;;;;;5201375;28;20158;-34
2021/12/10 08:19:07;;;;;;;27.73;21.10;;;13.30;81.40;;;;;;5219197;28;20050;-39
2021/12/10 08:22:48;;;;;;;26.17;20.87;;;13.40;81.20;;;;;;5202813;28;20458;-35
2021/12/10 08:25:39;;;;;;;30.23;22.47;;;13.40;81.10;;;;;;5160458;28;20065;-40
2021/12/10 08:28:24;;;;;;;28.10;21.27;;;13.40;80.90;;;;;;5161149;28;20137;-37
2021/12/10 08:31:05;;;;;;;31.63;24.33;;;13.50;80.90;;;;;;5142557;28;20141;-36
2021/12/10 08:33:48;;;;;;;37.47;26.63;;;13.50;80.80;;;;;;5161443;28;20066;-36
2021/12/10 08:36:23;;;;;;;34.50;26.23;;;13.50;80.80;;;;;;5160285;28;20057;-37
2021/12/10 08:38:54;;;;;;;61.47;42.40;;;13.50;80.70;;;;;;5176655;28;20054;-41
2021/12/10 08:41:27;;;;;;;72.37;49.07;;;13.60;80.80;;;;;;5163924;28;20137;-36
2021/12/10 08:44:04;;;;;;;47.53;37.37;;;13.60;80.80;;;;;;5150454;28;20057;-39
2021/12/10 08:46:36;;;;;;;55.87;41.73;;;13.60;81.00;;;;;;5148968;28;20047;-33
2021/12/10 08:49:08;;;;;;;47.67;36.90;;;13.60;81.00;;;;;;5166399;28;20050;-33
2021/12/10 08:51:51;;;;;;;51.63;40.13;;;13.60;81.30;;;;;;5150648;28;20417;-39
2021/12/10 08:54:25;;;;;;;47.13;37.90;;;13.70;81.30;;;;;;5150761;28;20046;-32
2021/12/10 08:57:10;;;;;;;;;;;13.70;81.10;;;;;;5167329;28;20054;-34
2021/12/10 08:59:53;;;;;;;40.60;31.40;;;13.80;80.90;;;;;;5166847;28;19922;-35
2021/12/10 09:02:24;;;;;;;42.87;32.20;;;13.90;80.60;;;;;;5183029;28;20514;-37
2021/12/10 09:04:58;;;;;;;41.13;33.33;;;14.00;80.40;;;;;;5188336;28;20049;-42
2021/12/10 09:07:29;;;;;;;38.67;30.77;;;14.00;80.30;;;;;;5188276;28;20395;-37
2021/12/10 09:10:00;;;;;;;39.47;32.07;;;14.10;80.30;;;;;;5189338;28;20465;-39
2021/12/10 09:12:31;;;;;;;41.40;31.60;;;14.10;80.10;;;;;;5188267;28;20045;-37
2021/12/10 09:15:05;;;;;;;50.63;37.37;;;14.00;80.00;;;;;;5188850;28;20217;-36
2021/12/10 09:17:37;;;;;;;44.20;33.83;;;14.10;79.80;;;;;;5188037;28;20045;-37
2021/12/10 09:20:20;;;;;;;39.10;30.10;;;14.10;80.00;;;;;;5189329;28;20065;-40
2021/12/10 09:22:53;;;;;;;;;;;14.10;79.90;;;;;;5188718;28;20287;-39
2021/12/10 09:25:25;;;;;;;;;;;14.10;79.90;;;;;;5189682;28;20390;-38
2021/12/10 09:27:58;;;;;;;;;;;14.20;80.00;;;;;;5189277;28;19921;-37
2021/12/10 09:30:30;;;;;;;;;;;14.20;80.10;;;;;;5188480;28;20017;-35
2021/12/10 09:33:01;;;;;;;;;;;14.20;79.90;;;;;;5189603;28;20421;-40
2021/12/10 09:35:35;;;;;;;;;;;14.10;79.90;;;;;;5204187;28;20439;-38
2021/12/10 09:38:06;;;;;;;;;;;14.20;79.90;;;;;;5187697;28;20012;-32
2021/12/10 09:40:41;;;;;;;;;;;14.20;79.90;;;;;;5188081;28;19921;-35
2021/12/10 09:43:12;;;;;;;;;;;14.20;79.80;;;;;;5189414;28;19925;-39
2021/12/10 09:45:45;;;;;;;;;;;14.20;79.30;;;;;;5189070;28;20394;-36
2021/12/10 09:48:16;;;;;;;;;;;14.30;79.90;;;;;;5189062;28;19975;-37
2021/12/10 09:50:54;;;;;;;38.87;29.13;;;14.20;79.60;;;;;;5188327;28;19925;-37
2021/12/10 09:53:26;;;;;;;39.00;29.43;;;14.20;79.40;;;;;;5187788;28;20096;-37
2021/12/10 09:55:57;;;;;;;39.20;29.73;;;14.20;79.50;;;;;;5188066;28;20488;-40
2021/12/10 09:58:29;;;;;;;36.03;27.60;;;14.20;79.50;;;;;;5187113;28;20046;-37
2021/12/10 10:01:17;;;;;;;34.70;27.67;;;14.20;79.40;;;;;;5188489;28;20491;-37
2021/12/10 10:03:49;;;;;;;36.07;28.10;;;14.20;79.40;;;;;;5188446;28;20507;-36
2021/12/10 10:06:21;;;;;;;37.58;29.73;;;14.20;79.20;;;;;;5188330;28;20068;-38
2021/12/10 10:08:51;;;;;;;34.47;28.23;;;14.20;79.20;;;;;;5188349;28;20049;-39
2021/12/10 10:11:26;;;;;;;37.43;28.43;;;14.20;79.20;;;;;;5186517;28;20048;-34
2021/12/10 10:13:57;;;;;;;45.70;33.30;;;14.20;79.50;;;;;;5170900;28;20145;-35
2021/12/10 10:16:29;;;;;;;42.17;33.50;;;14.20;79.60;;;;;;5188308;28;20037;-40
2021/12/10 10:19:01;;;;;;;43.63;35.25;;;14.20;79.50;;;;;;5186744;28;20443;-38
2021/12/10 10:21:37;;;;;;;39.43;32.17;;;14.10;79.50;;;;;;5187967;28;20453;-31
2021/12/10 10:24:08;;;;;;;43.60;34.73;;;14.10;79.70;;;;;;5186705;28;20049;-38
2021/12/10 10:26:44;;;;;;;45.57;35.30;;;14.10;79.60;;;;;;5186920;28;20038;-36
2021/12/10 10:29:18;;;;;;;44.17;35.63;;;14.10;79.50;;;;;;5186302;28;20069;-40
2021/12/10 10:31:58;;;;;;;44.87;34.57;;;14.10;79.40;;;;;;5187677;28;20472;-35
2021/12/10 10:34:29;;;;;;;45.30;35.33;;;14.00;79.40;;;;;;5171161;28;20078;-37
2021/12/10 10:37:00;;;;;;;40.60;32.83;;;14.00;79.30;;;;;;5185405;28;20056;-39
2021/12/10 10:39:36;;;;;;;39.07;33.57;;;14.00;79.40;;;;;;5187774;28;20054;-38
2021/12/10 10:42:15;;;;;;;44.90;36.03;;;14.00;79.40;;;;;;5169533;28;20408;-40
2021/12/10 10:45:20;;;;;;;48.63;37.87;;;14.00;79.60;;;;;;5186457;28;20411;-37
2021/12/10 10:48:20;;;;;;;52.10;41.37;;;14.00;79.60;;;;;;5132733;28;20055;-38
2021/12/10 10:50:58;;;;;;;55.33;44.80;;;14.00;79.50;;;;;;5099480;28;20067;-38
2021/12/10 10:53:54;;;;;;;58.53;45.13;;;14.00;79.40;;;;;;5144736;28;20058;-33
2021/12/10 10:56:42;;;;;;;60.10;46.53;;;14.00;79.30;;;;;;5131926;28;20138;-29
2021/12/10 10:59:24;;;;;;;52.37;40.90;;;14.00;79.40;;;;;;5144318;28;20054;-35
2021/12/10 11:02:03;;;;;;;51.37;40.43;;;14.10;79.30;;;;;;5144428;28;20046;-38
2021/12/10 11:04:38;;;;;;;57.77;45.50;;;14.10;79.30;;;;;;5128524;28;20054;-34
2021/12/10 11:07:15;;;;;;;50.77;40.33;;;14.20;79.40;;;;;;5113051;28;20531;-30
2021/12/10 11:09:49;;;;;;;;;;;14.40;79.10;;;;;;5129595;28;20142;-34
2021/12/10 11:12:26;;;;;;;;;;;14.50;78.70;;;;;;5145247;28;19929;-35
2021/12/10 11:14:58;;;;;;;;;;;14.60;79.00;;;;;;5144905;28;19928;-30
2021/12/10 11:17:32;;;;;;;;;;;14.70;78.10;;;;;;5105123;29;20499;-38
2021/12/10 11:20:05;;;;;;;;;;;14.70;77.80;;;;;;5105153;29;20017;-38
2021/12/10 11:22:43;;;;;;;;;;;14.70;77.70;;;;;;5105095;29;20377;-39
2021/12/10 11:25:18;;;;;;;;;;;14.70;77.50;;;;;;5105474;29;19992;-32
2021/12/10 11:27:48;;;;;;;;;;;14.70;77.50;;;;;;5105006;29;19923;-36
2021/12/10 11:30:21;;;;;;;;;;;14.70;77.50;;;;;;5104930;29;20309;-39
2021/12/10 11:33:17;;;;;;;;;;;14.70;77.50;;;;;;5105159;29;19931;-39
2021/12/10 11:35:53;;;;;;;;;;;14.70;77.40;;;;;;5124887;29;20024;-35
2021/12/10 11:38:25;;;;;;;;;;;14.70;77.70;;;;;;5124407;29;19922;-41
2021/12/10 11:41:00;;;;;;;;;;;14.70;77.60;;;;;;5124557;29;20428;-38
2021/12/10 11:46:30;;;;;;;;;;;14.70;77.40;;;;;;5124476;28;19922;-41
2021/12/10 11:49:18;;;;;;;55.00;41.30;;;14.60;77.10;;;;;;5124143;29;20404;-41
2021/12/10 11:52:01;;;;;;;52.63;41.33;;;14.60;77.60;;;;;;5108503;29;20475;-36
2021/12/10 11:54:32;;;;;;;52.42;41.95;;;14.60;76.90;;;;;;5124052;29;20106;-34
2021/12/10 11:57:14;;;;;;;54.90;43.63;;;14.60;77.00;;;;;;5124071;29;20405;-37
2021/12/10 11:59:55;;;;;;;57.73;45.10;;;14.50;77.00;;;;;;5108113;29;20126;-38
2021/12/10 12:02:30;;;;;;;63.13;47.80;;;14.50;77.00;;;;;;5108374;29;20513;-39
2021/12/10 12:05:05;;;;;;;62.57;47.50;;;14.50;77.20;;;;;;5123842;29;20047;-39
2021/12/10 12:07:40;;;;;;;56.07;44.60;;;14.50;77.30;;;;;;5123845;29;20501;-39
2021/12/10 12:10:22;;;;;;;60.45;43.92;;;14.50;77.30;;;;;;5107924;29;20051;-39
2021/12/10 12:13:08;;;;;;;74.47;54.72;;;14.50;77.70;;;;;;5163601;28;20058;-39
2021/12/10 12:15:39;;;;;;;81.43;58.00;;;14.50;77.20;;;;;;5190037;28;20065;-36
2021/12/10 12:18:24;;;;;;;75.47;56.33;;;14.50;77.30;;;;;;5190032;28;20404;-39
2021/12/10 12:27:08;;;;;;;75.13;53.43;;;14.40;77.70;;;;;;5190425;28;20045;-35
2021/12/10 12:30:02;;;;;;;69.43;51.40;;;14.40;77.70;;;;;;5190160;28;20034;-39
2021/12/10 12:32:38;;;;;;;75.93;54.90;;;14.30;77.70;;;;;;5190263;28;20117;-33
2021/12/10 12:35:20;;;;;;;78.83;54.67;;;14.40;77.70;;;;;;5189105;28;20124;-36
2021/12/10 12:38:05;;;;;;;78.10;54.97;;;14.30;77.60;;;;;;5189675;28;20096;-36
2021/12/10 12:40:37;;;;;;;80.70;58.33;;;14.30;77.60;;;;;;5175321;28;20046;-36
2021/12/10 12:43:09;;;;;;;79.53;57.77;;;14.30;77.50;;;;;;5189631;28;20132;-37
2021/12/10 12:45:40;;;;;;;82.73;59.20;;;14.30;77.40;;;;;;5172658;28;20070;-38
2021/12/10 12:48:13;;;;;;;88.07;61.53;;;14.30;77.40;;;;;;5188705;28;20530;-37
2021/12/10 12:50:44;;;;;;;90.07;61.97;;;14.30;77.40;;;;;;5188436;28;20049;-33
2021/12/10 12:53:20;;;;;;;81.10;59.13;;;14.30;77.30;;;;;;5189757;28;20046;-38
2021/12/10 12:55:54;;;;;;;88.80;64.07;;;14.30;77.40;;;;;;5189241;28;20050;-40
2021/12/10 12:58:39;;;;;;;105.77;74.57;;;14.30;77.40;;;;;;5189670;28;20050;-32
2021/12/10 13:01:16;;;;;;;128.13;85.57;;;14.30;77.50;;;;;;5189455;28;20046;-39
2021/12/10 13:03:58;;;;;;;117.10;79.03;;;14.30;77.30;;;;;;5189794;28;20502;-34
2021/12/10 13:06:44;;;;;;;91.73;65.77;;;14.30;77.20;;;;;;5189397;28;20049;-38
2021/12/10 13:09:43;;;;;;;98.63;68.70;;;14.40;77.30;;;;;;5190091;28;20038;-35
2021/12/10 13:15:04;;;;;;;97.23;68.27;;;14.40;77.30;;;;;;5189545;28;20125;-35
2021/12/10 13:17:45;;;;;;;101.03;68.13;;;14.40;77.20;;;;;;5189368;28;20117;-32
2021/12/10 13:20:21;;;;;;;89.03;59.43;;;14.40;77.10;;;;;;5189066;28;20050;-34
2021/12/10 13:22:55;;;;;;;85.37;59.27;;;14.40;77.10;;;;;;5188876;28;20056;-35
2021/12/10 13:25:28;;;;;;;83.97;56.63;;;14.50;77.10;;;;;;5187166;28;20045;-31
2021/12/10 13:28:02;;;;;;;89.37;60.40;;;14.50;77.00;;;;;;5189434;28;20167;-34
2021/12/10 13:30:42;;;;;;;88.32;61.60;;;14.60;77.20;;;;;;5189388;28;20152;-37
2021/12/10 13:33:15;;;;;;;95.20;67.70;;;14.60;77.10;;;;;;5187601;28;20042;-39
2021/12/10 13:35:47;;;;;;;76.10;56.23;;;14.60;77.00;;;;;;5187837;28;20042;-33
2021/12/10 13:38:20;;;;;;;90.93;64.80;;;14.60;76.80;;;;;;5187733;28;20065;-38
2021/12/10 13:40:52;;;;;;;87.90;63.00;;;14.60;76.90;;;;;;5188161;28;20069;-37